Time;durP1;ratioP1;P1;durP2;ratioP2;P2;SDS_P1;SDS_P2;PMS_P1;PMS_P2;Temp;Humidity;BMP_temperature;BMP_pressure;BME280_temperature;BME280_humidity;BME280_pressure;Samples;Min_cycle;Max_cycle;Signal;HPM_P1;HPM_P2
2021/01/31 00:00:36;;;;;;;11.35;7.72;;;-4.00;99.90;;;;;;4872183;29;20920;-76
2021/01/31 00:03:04;;;;;;;10.98;7.68;;;-4.00;99.90;;;;;;4871135;29;20491;-76
2021/01/31 00:05:29;;;;;;;11.25;7.97;;;-3.90;99.90;;;;;;4863659;29;20929;-77
2021/01/31 00:07:55;;;;;;;12.15;8.38;;;-3.90;99.90;;;;;;4838697;29;20452;-76
2021/01/31 00:10:29;;;;;;;9.73;7.32;;;-4.00;99.90;;;;;;4863100;29;20403;-76
2021/01/31 00:12:55;;;;;;;11.10;6.97;;;-4.10;99.90;;;;;;4877668;29;20424;-77
2021/01/31 00:15:22;;;;;;;9.25;6.20;;;-4.10;99.90;;;;;;4875095;29;20467;-76
2021/01/31 00:17:50;;;;;;;5.70;5.13;;;-4.10;99.90;;;;;;4834542;29;20408;-76
2021/01/31 00:20:21;;;;;;;6.18;4.93;;;-4.10;99.90;;;;;;4848348;29;20399;-76
2021/01/31 00:22:47;;;;;;;6.47;4.82;;;-4.10;99.90;;;;;;4862041;29;20482;-76
2021/01/31 00:25:13;;;;;;;5.93;4.70;;;-4.20;99.90;;;;;;4861571;29;20487;-76
2021/01/31 00:27:39;;;;;;;5.97;5.28;;;-4.20;99.90;;;;;;4865211;29;20417;-75
2021/01/31 00:30:12;;;;;;;6.68;5.30;;;-4.20;99.90;;;;;;4862176;29;20415;-75
2021/01/31 00:32:38;;;;;;;6.65;5.65;;;-4.30;99.90;;;;;;4877542;29;20414;-76
2021/01/31 00:35:04;;;;;;;6.03;5.43;;;-4.30;99.90;;;;;;4862587;29;20411;-76
2021/01/31 00:37:30;;;;;;;6.65;4.80;;;-4.30;99.90;;;;;;4860569;29;20423;-75
2021/01/31 00:39:56;;;;;;;6.00;4.22;;;-4.30;99.90;;;;;;4845209;29;20418;-75
2021/01/31 00:42:21;;;;;;;4.90;4.13;;;-4.30;99.90;;;;;;4873358;29;20995;-75
2021/01/31 00:44:49;;;;;;;3.67;3.20;;;-4.30;99.90;;;;;;4872483;29;20483;-75
2021/01/31 00:47:15;;;;;;;3.70;3.38;;;-4.40;99.90;;;;;;4879801;29;20434;-75
2021/01/31 00:49:43;;;;;;;3.58;3.28;;;-4.40;99.90;;;;;;4843869;29;20395;-76
2021/01/31 00:52:08;;;;;;;4.55;3.58;;;-4.30;99.90;;;;;;4861807;29;20398;-76
2021/01/31 00:54:36;;;;;;;4.60;3.60;;;-4.30;99.90;;;;;;4850020;29;20503;-76
2021/01/31 00:57:04;;;;;;;4.22;3.67;;;-4.30;99.90;;;;;;4859431;29;20427;-77
2021/01/31 00:59:30;;;;;;;4.20;3.30;;;-4.40;99.90;;;;;;4869065;29;20416;-76
2021/01/31 01:01:55;;;;;;;3.90;3.40;;;-4.50;99.90;;;;;;4876236;29;20407;-77
2021/01/31 01:04:23;;;;;;;5.25;3.80;;;-4.50;99.90;;;;;;4883098;29;20488;-77
2021/01/31 01:06:59;;;;;;;3.75;3.28;;;-4.40;99.90;;;;;;4877043;29;20411;-76
2021/01/31 01:09:25;;;;;;;3.80;3.42;;;-4.40;99.90;;;;;;4872026;29;20491;-76
2021/01/31 01:11:51;;;;;;;4.15;3.75;;;-4.40;99.90;;;;;;4873182;29;20408;-75
2021/01/31 01:14:16;;;;;;;3.85;3.00;;;-4.40;99.90;;;;;;4874375;29;21070;-76
2021/01/31 01:16:42;;;;;;;4.63;3.43;;;-4.40;99.90;;;;;;4860992;29;20423;-75
2021/01/31 01:19:08;;;;;;;3.97;3.53;;;-4.50;99.90;;;;;;4860266;29;20892;-76
2021/01/31 01:21:34;;;;;;;3.72;3.42;;;-4.70;99.90;;;;;;4886355;29;20455;-77
2021/01/31 01:24:00;;;;;;;3.20;2.90;;;-5.00;99.90;;;;;;4873600;29;20470;-75
2021/01/31 01:26:27;;;;;;;4.32;3.40;;;-5.20;99.90;;;;;;4843915;29;20422;-75
2021/01/31 01:28:53;;;;;;;3.47;3.17;;;-5.20;99.90;;;;;;4860081;29;20431;-75
2021/01/31 01:31:19;;;;;;;4.72;3.55;;;-5.30;99.90;;;;;;4840521;29;20503;-75
2021/01/31 01:33:44;;;;;;;3.88;3.40;;;-5.30;99.90;;;;;;4869952;29;21158;-75
2021/01/31 01:36:10;;;;;;;3.33;3.03;;;-5.20;99.90;;;;;;4859629;29;20418;-75
2021/01/31 01:38:36;;;;;;;3.73;3.33;;;-5.10;99.90;;;;;;4838367;29;20426;-75
2021/01/31 01:41:02;;;;;;;4.30;3.10;;;-5.00;99.90;;;;;;4875804;29;20434;-76
2021/01/31 01:43:31;;;;;;;4.60;3.70;;;-5.00;99.90;;;;;;4875380;29;20442;-75
2021/01/31 01:46:22;;;;;;;3.40;3.10;;;-5.10;99.90;;;;;;4864944;29;20828;-75
2021/01/31 01:48:53;;;;;;;4.03;3.40;;;-5.10;99.90;;;;;;4890414;29;20506;-75
2021/01/31 01:51:42;;;;;;;4.53;3.17;;;-5.10;99.90;;;;;;4876278;29;20784;-77
2021/01/31 01:54:10;;;;;;;4.32;2.78;;;-5.10;99.90;;;;;;4877618;29;20423;-77
2021/01/31 01:56:44;;;;;;;4.50;3.60;;;-5.00;99.90;;;;;;4859643;29;20780;-77
2021/01/31 01:59:09;;;;;;;3.75;3.00;;;-5.10;99.90;;;;;;4857689;29;20504;-77
2021/01/31 02:01:36;;;;;;;4.05;3.17;;;-5.20;99.90;;;;;;4860489;29;20463;-77
2021/01/31 02:04:02;;;;;;;4.15;3.38;;;-5.20;99.90;;;;;;4879232;29;20425;-79
2021/01/31 02:06:28;;;;;;;3.67;3.03;;;-5.20;99.90;;;;;;4856316;29;20455;-77
2021/01/31 02:08:55;;;;;;;4.65;3.30;;;-5.20;99.90;;;;;;4875986;29;20424;-77
2021/01/31 02:11:22;;;;;;;3.25;2.95;;;-5.30;99.90;;;;;;4861778;29;20418;-76
2021/01/31 02:13:55;;;;;;;3.25;2.95;;;-5.50;99.90;;;;;;4873277;29;20476;-77
2021/01/31 02:16:28;;;;;;;5.95;3.30;;;-5.40;99.90;;;;;;4847506;29;20777;-77
2021/01/31 02:19:11;;;;;;;5.28;3.58;;;-5.40;99.90;;;;;;4873951;29;20405;-79
2021/01/31 02:21:49;;;;;;;4.05;3.65;;;-5.50;99.90;;;;;;4891790;29;20402;-77
2021/01/31 02:24:51;;;;;;;4.80;3.63;;;-5.60;99.90;;;;;;4887858;29;20530;-77
2021/01/31 02:27:47;;;;;;;5.25;3.40;;;-5.70;99.90;;;;;;4884081;29;20498;-79
2021/01/31 02:30:13;;;;;;;3.55;3.25;;;-5.80;99.90;;;;;;4872692;29;20420;-78
2021/01/31 02:32:44;;;;;;;4.27;3.10;;;-5.80;99.90;;;;;;4887718;29;20405;-78
2021/01/31 02:35:14;;;;;;;3.72;3.33;;;-5.80;99.90;;;;;;4891559;29;20413;-78
2021/01/31 02:37:51;;;;;;;4.37;3.30;;;-5.90;99.90;;;;;;4860068;29;20531;-76
2021/01/31 02:40:31;;;;;;;4.30;3.43;;;-6.00;99.90;;;;;;4871376;29;20933;-77
2021/01/31 02:43:20;;;;;;;2.97;2.67;;;-6.10;99.90;;;;;;4861133;29;20435;-76
2021/01/31 02:45:50;;;;;;;3.55;3.15;;;-6.10;99.90;;;;;;4897520;29;20443;-76
2021/01/31 02:48:26;;;;;;;4.95;3.40;;;-6.20;99.90;;;;;;4872978;29;20488;-76
2021/01/31 02:51:02;;;;;;;4.32;3.72;;;-6.20;99.90;;;;;;4862846;29;20508;-76
2021/01/31 02:53:30;;;;;;;5.18;3.70;;;-6.60;99.90;;;;;;4890283;29;20871;-78
2021/01/31 02:56:04;;;;;;;4.50;3.50;;;-6.80;99.90;;;;;;4887028;29;20405;-76
2021/01/31 02:58:34;;;;;;;3.70;3.22;;;-6.70;99.90;;;;;;4875870;29;20418;-76
2021/01/31 03:01:03;;;;;;;3.58;3.17;;;-6.90;99.90;;;;;;4845694;29;20452;-76
2021/01/31 03:03:32;;;;;;;3.70;3.40;;;-6.90;99.90;;;;;;4872185;29;20490;-76
2021/01/31 03:05:58;;;;;;;5.05;3.95;;;-6.80;99.90;;;;;;4873623;29;20426;-76
2021/01/31 03:08:29;;;;;;;3.90;3.45;;;-6.70;99.90;;;;;;4888613;29;20399;-76
2021/01/31 03:11:00;;;;;;;4.72;3.80;;;-6.80;99.90;;;;;;4870263;29;20407;-76
2021/01/31 03:13:49;;;;;;;5.33;3.93;;;-6.90;99.90;;;;;;4871979;29;20391;-76
2021/01/31 03:16:18;;;;;;;4.57;3.92;;;-6.90;99.90;;;;;;4884338;29;20918;-76
2021/01/31 03:18:53;;;;;;;6.18;4.30;;;-6.90;99.90;;;;;;4860222;29;20411;-76
2021/01/31 03:21:24;;;;;;;4.07;3.28;;;-7.10;99.90;;;;;;4860177;29;20402;-76
2021/01/31 03:24:04;;;;;;;4.88;3.83;;;-7.10;99.90;;;;;;4869994;29;20407;-77
2021/01/31 03:26:31;;;;;;;4.40;4.00;;;-7.10;99.90;;;;;;4880635;29;20975;-78
2021/01/31 03:28:56;;;;;;;5.05;3.88;;;-7.10;99.90;;;;;;4872050;29;20415;-81
2021/01/31 03:31:22;;;;;;;5.30;3.97;;;-7.20;99.90;;;;;;4876944;29;20498;-79
2021/01/31 03:33:51;;;;;;;4.60;3.77;;;-7.20;99.90;;;;;;4844357;29;20827;-78
2021/01/31 03:36:17;;;;;;;6.40;4.18;;;-7.20;99.90;;;;;;4878623;29;20498;-78
2021/01/31 03:38:45;;;;;;;4.88;4.40;;;-7.20;99.90;;;;;;4862084;29;20447;-79
2021/01/31 03:41:13;;;;;;;4.93;4.45;;;-7.20;99.90;;;;;;4864345;29;20410;-78
2021/01/31 03:43:39;;;;;;;4.97;4.00;;;-7.30;99.90;;;;;;4863003;29;20403;-78
2021/01/31 03:46:32;;;;;;;3.90;3.50;;;-7.40;99.90;;;;;;4867151;29;20430;-79
2021/01/31 03:49:14;;;;;;;4.22;3.65;;;-7.40;99.90;;;;;;4888563;29;20421;-79
2021/01/31 03:51:40;;;;;;;5.18;4.20;;;-7.30;99.90;;;;;;4895859;29;20403;-77
2021/01/31 03:54:06;;;;;;;6.38;5.15;;;-7.30;99.90;;;;;;4862012;29;20500;-77
2021/01/31 03:56:47;;;;;;;7.40;5.85;;;-7.30;99.90;;;;;;4863649;29;20411;-78
2021/01/31 03:59:16;;;;;;;6.75;5.80;;;-7.50;99.90;;;;;;4877347;29;20431;-77
2021/01/31 04:01:42;;;;;;;7.73;6.00;;;-7.60;99.90;;;;;;4876654;29;20415;-80
2021/01/31 04:04:15;;;;;;;7.90;6.00;;;-7.60;99.90;;;;;;4859433;29;21179;-78
2021/01/31 04:06:41;;;;;;;8.77;6.97;;;-7.70;99.90;;;;;;4901800;29;20414;-78
2021/01/31 04:09:11;;;;;;;9.63;6.90;;;-7.80;99.90;;;;;;4895657;29;20462;-80
2021/01/31 04:11:38;;;;;;;10.02;7.20;;;-7.80;99.90;;;;;;4859683;29;20942;-77
2021/01/31 04:14:10;;;;;;;8.70;7.10;;;-7.80;99.90;;;;;;4864871;29;20457;-79
2021/01/31 04:16:38;;;;;;;8.65;7.18;;;-7.80;99.90;;;;;;4880743;29;20411;-79
2021/01/31 04:19:04;;;;;;;9.93;7.03;;;-7.80;99.90;;;;;;4877336;29;20417;-78
2021/01/31 04:21:29;;;;;;;8.27;6.50;;;-7.80;99.90;;;;;;4893645;29;20466;-77
2021/01/31 04:23:55;;;;;;;9.80;7.40;;;-7.70;99.90;;;;;;4858667;29;20409;-79
2021/01/31 04:26:22;;;;;;;10.32;7.50;;;-7.80;99.90;;;;;;4865058;29;21412;-79
2021/01/31 04:28:48;;;;;;;10.02;7.95;;;-7.70;99.90;;;;;;4865199;29;20511;-76
2021/01/31 04:31:13;;;;;;;8.43;7.32;;;-7.70;99.90;;;;;;4879839;29;20418;-77
2021/01/31 04:33:39;;;;;;;10.60;7.30;;;-7.60;99.90;;;;;;4880314;29;20863;-78
2021/01/31 04:36:05;;;;;;;7.93;6.70;;;-7.60;99.90;;;;;;4858869;29;20510;-81
2021/01/31 04:38:31;;;;;;;9.80;6.75;;;-7.60;99.90;;;;;;4874755;29;20417;-77
2021/01/31 04:40:59;;;;;;;10.80;6.78;;;-7.60;99.90;;;;;;4875091;29;20537;-79
2021/01/31 04:43:25;;;;;;;10.30;7.65;;;-7.50;99.90;;;;;;4848618;29;20418;-79
2021/01/31 04:45:50;;;;;;;10.67;8.27;;;-7.40;99.90;;;;;;4884792;29;20787;-79
2021/01/31 04:48:40;;;;;;;11.03;7.90;;;-7.40;99.90;;;;;;4862003;29;20414;-79
2021/01/31 04:51:11;;;;;;;14.13;10.05;;;-7.30;99.90;;;;;;4891483;29;20412;-81
2021/01/31 04:54:03;;;;;;;12.15;7.82;;;-7.20;99.90;;;;;;4889088;29;20391;-78
2021/01/31 04:56:41;;;;;;;11.02;8.32;;;-7.10;99.90;;;;;;4876077;29;20447;-78
2021/01/31 04:59:29;;;;;;;10.23;7.40;;;-7.10;99.90;;;;;;4907844;29;20759;-77
2021/01/31 05:02:31;;;;;;;9.38;6.65;;;-7.00;99.90;;;;;;4868480;29;20419;-78
2021/01/31 05:05:00;;;;;;;9.82;7.50;;;-7.00;99.90;;;;;;4877808;29;20445;-77
2021/01/31 05:07:38;;;;;;;8.53;7.40;;;-7.00;99.90;;;;;;4891449;29;20409;-77
2021/01/31 05:10:08;;;;;;;11.57;9.57;;;-7.00;99.90;;;;;;4877191;29;20813;-79
2021/01/31 05:13:03;;;;;;;12.13;9.13;;;-6.90;99.90;;;;;;4877935;29;20483;-77
2021/01/31 05:15:30;;;;;;;11.13;8.65;;;-7.00;99.90;;;;;;4893604;29;20494;-76
2021/01/31 05:17:58;;;;;;;11.60;7.78;;;-7.00;99.90;;;;;;4845268;29;20412;-77
2021/01/31 05:20:26;;;;;;;12.18;7.85;;;-6.90;99.90;;;;;;4862904;29;20871;-78
2021/01/31 05:22:53;;;;;;;11.60;8.23;;;-6.90;99.90;;;;;;4842545;29;20487;-77
2021/01/31 05:25:21;;;;;;;11.85;9.00;;;-6.90;99.90;;;;;;4867093;29;20417;-78
2021/01/31 05:27:47;;;;;;;11.73;8.90;;;-6.80;99.90;;;;;;4862725;29;20427;-78
2021/01/31 05:30:13;;;;;;;9.30;7.93;;;-6.80;99.90;;;;;;4874421;29;20410;-78
2021/01/31 05:33:02;;;;;;;11.85;8.35;;;-6.70;99.90;;;;;;4862000;29;20477;-77
2021/01/31 05:35:29;;;;;;;10.85;7.93;;;-6.70;99.90;;;;;;4906270;29;20479;-78
2021/01/31 05:37:54;;;;;;;9.93;7.50;;;-6.60;99.90;;;;;;4860715;29;20920;-77
2021/01/31 05:40:30;;;;;;;13.00;8.80;;;-6.60;99.90;;;;;;4867841;29;20425;-77
2021/01/31 05:42:57;;;;;;;10.77;8.55;;;-6.50;99.90;;;;;;4874581;29;20423;-77
2021/01/31 05:45:23;;;;;;;11.13;8.93;;;-6.40;99.90;;;;;;4871828;29;20405;-78
2021/01/31 05:47:49;;;;;;;10.45;8.00;;;-6.50;99.90;;;;;;4891872;29;20467;-78
2021/01/31 05:50:33;;;;;;;13.20;8.25;;;-6.50;99.90;;;;;;4873900;29;20427;-79
2021/01/31 05:53:24;;;;;;;11.47;8.63;;;-6.50;99.90;;;;;;4879807;29;20419;-79
2021/01/31 05:55:50;;;;;;;11.40;9.20;;;-6.50;99.90;;;;;;4872030;29;20466;-79
2021/01/31 05:58:20;;;;;;;11.87;8.13;;;-6.60;99.90;;;;;;4860760;29;20411;-79
2021/01/31 06:00:47;;;;;;;12.40;9.05;;;-6.60;99.90;;;;;;4895621;29;20543;-77
2021/01/31 06:03:18;;;;;;;11.15;7.97;;;-6.50;99.90;;;;;;4871330;29;20468;-79
2021/01/31 06:05:44;;;;;;;8.15;6.90;;;-6.50;99.90;;;;;;4854246;29;20480;-76
2021/01/31 06:08:27;;;;;;;8.48;7.35;;;-6.40;99.90;;;;;;4862464;29;20479;-76
2021/01/31 06:11:00;;;;;;;9.15;6.57;;;-6.40;99.90;;;;;;4874114;29;20464;-77
2021/01/31 06:13:26;;;;;;;10.43;7.97;;;-6.30;99.90;;;;;;4859717;29;20419;-76
2021/01/31 06:15:56;;;;;;;11.07;8.60;;;-6.20;99.90;;;;;;4874588;29;20407;-76
2021/01/31 06:18:26;;;;;;;9.73;7.88;;;-6.20;99.90;;;;;;4860900;29;20776;-77
2021/01/31 06:20:52;;;;;;;11.98;9.20;;;-6.20;99.90;;;;;;4868044;29;20417;-76
2021/01/31 06:23:28;;;;;;;8.43;6.45;;;-6.10;99.90;;;;;;4870889;29;20990;-75
2021/01/31 06:25:53;;;;;;;9.45;6.75;;;-6.00;99.90;;;;;;4876695;29;20936;-76
2021/01/31 06:28:21;;;;;;;10.17;7.57;;;-6.00;99.90;;;;;;4874182;29;20403;-76
2021/01/31 06:31:05;;;;;;;10.00;6.43;;;-6.00;99.90;;;;;;4873162;29;20408;-77
2021/01/31 06:33:30;;;;;;;8.55;6.90;;;-6.00;99.90;;;;;;4865309;29;20896;-76
2021/01/31 06:36:11;;;;;;;8.93;7.22;;;-6.00;99.90;;;;;;4859516;29;20417;-77
2021/01/31 06:39:09;;;;;;;9.27;7.23;;;-6.00;99.90;;;;;;4885759;29;20427;-76
2021/01/31 06:42:06;;;;;;;7.68;6.43;;;-5.90;99.90;;;;;;4880452;29;20403;-76
2021/01/31 06:44:57;;;;;;;9.38;7.28;;;-5.90;99.90;;;;;;4890346;29;21031;-76
2021/01/31 06:47:30;;;;;;;11.23;9.25;;;-6.00;99.90;;;;;;4878511;29;20442;-80
2021/01/31 06:50:07;;;;;;;10.27;8.30;;;-5.90;99.90;;;;;;4881779;29;20425;-79
2021/01/31 06:53:01;;;;;;;8.97;6.97;;;-5.90;99.90;;;;;;4880511;29;20774;-76
2021/01/31 06:55:35;;;;;;;13.33;7.43;;;-5.90;99.90;;;;;;4893431;29;20437;-76
2021/01/31 06:58:56;;;;;;;8.93;6.88;;;-5.90;99.90;;;;;;4885280;29;20428;-76
2021/01/31 07:01:43;;;;;;;9.30;8.10;;;-5.90;99.90;;;;;;4871955;29;20407;-75
2021/01/31 07:04:17;;;;;;;13.98;10.00;;;-5.90;99.90;;;;;;4872898;29;21040;-75
2021/01/31 07:07:14;;;;;;;10.00;8.53;;;-5.90;99.90;;;;;;4897114;29;20423;-76
2021/01/31 07:10:01;;;;;;;10.02;6.50;;;-5.80;99.90;;;;;;4890616;29;20450;-78
2021/01/31 07:12:32;;;;;;;12.63;9.40;;;-5.80;99.90;;;;;;4863011;29;20403;-78
2021/01/31 07:15:02;;;;;;;12.60;8.57;;;-5.70;99.90;;;;;;4841465;29;20411;-75
2021/01/31 07:17:38;;;;;;;8.95;7.40;;;-5.70;99.90;;;;;;4833923;29;20449;-75
2021/01/31 07:20:16;;;;;;;9.07;6.53;;;-5.70;99.90;;;;;;4862961;29;21117;-76
2021/01/31 07:22:43;;;;;;;12.65;8.82;;;-5.70;99.90;;;;;;4860720;29;20446;-75
2021/01/31 07:25:28;;;;;;;9.50;7.95;;;-5.70;99.90;;;;;;4897418;29;20409;-75
2021/01/31 07:27:56;;;;;;;9.73;6.95;;;-5.70;99.90;;;;;;4873955;29;20466;-76
2021/01/31 07:30:24;;;;;;;10.32;8.30;;;-5.70;99.90;;;;;;4863154;29;20419;-75
2021/01/31 07:33:38;;;;;;;11.98;9.38;;;-5.60;99.90;;;;;;4875861;29;20438;-76
2021/01/31 07:36:23;;;;;;;12.32;7.85;;;-5.70;99.90;;;;;;4875883;29;20753;-76
2021/01/31 07:39:07;;;;;;;10.82;8.57;;;-5.70;99.90;;;;;;4887520;29;20438;-74
2021/01/31 07:41:33;;;;;;;12.60;8.18;;;-5.70;99.90;;;;;;4892582;29;20478;-74
2021/01/31 07:44:04;;;;;;;11.88;8.48;;;-5.60;99.90;;;;;;4892273;29;20900;-75
2021/01/31 07:46:30;;;;;;;10.48;7.78;;;-5.60;99.90;;;;;;4871110;29;20432;-74
2021/01/31 07:48:58;;;;;;;11.55;8.20;;;-5.60;99.90;;;;;;4869887;29;20415;-74
2021/01/31 07:51:27;;;;;;;9.25;7.18;;;-5.60;99.90;;;;;;4878088;29;20416;-74
2021/01/31 07:53:56;;;;;;;10.75;7.85;;;-5.60;99.90;;;;;;4888779;29;20483;-75
2021/01/31 07:56:21;;;;;;;15.13;9.93;;;-5.50;99.90;;;;;;4844295;29;20884;-77
2021/01/31 07:58:47;;;;;;;11.70;7.93;;;-5.50;99.90;;;;;;4889803;29;20541;-76
2021/01/31 08:01:13;;;;;;;10.27;8.00;;;-5.40;99.90;;;;;;4873724;29;20395;-74
2021/01/31 08:03:39;;;;;;;12.55;9.60;;;-5.40;99.90;;;;;;4872589;29;20426;-76
2021/01/31 08:06:06;;;;;;;11.40;8.93;;;-5.40;99.90;;;;;;4872954;29;20434;-74
2021/01/31 08:08:55;;;;;;;17.98;11.70;;;-5.30;99.90;;;;;;4858787;29;20924;-76
2021/01/31 08:11:21;;;;;;;14.30;10.73;;;-5.20;99.90;;;;;;4878979;29;20453;-75
2021/01/31 08:13:51;;;;;;;13.63;8.93;;;-5.20;99.90;;;;;;4891542;29;20804;-76
2021/01/31 08:16:53;;;;;;;10.13;7.78;;;-5.20;99.90;;;;;;4843596;29;20808;-77
2021/01/31 08:19:19;;;;;;;12.32;8.68;;;-5.20;99.90;;;;;;4882910;29;20436;-76
2021/01/31 08:22:01;;;;;;;10.87;7.60;;;-5.10;99.90;;;;;;4889818;29;20772;-76
2021/01/31 08:25:00;;;;;;;10.90;8.13;;;-5.00;99.90;;;;;;4900215;29;21088;-76
2021/01/31 08:27:38;;;;;;;13.27;9.77;;;-4.90;99.90;;;;;;4892299;29;20407;-77
2021/01/31 08:30:23;;;;;;;10.10;7.95;;;-4.80;99.90;;;;;;4895742;29;20474;-79
2021/01/31 08:32:58;;;;;;;11.93;8.80;;;-4.80;99.90;;;;;;4893920;29;20405;-76
2021/01/31 08:35:26;;;;;;;9.87;8.30;;;-4.80;99.90;;;;;;4885136;29;20420;-76
2021/01/31 08:38:18;;;;;;;11.97;8.80;;;-4.80;99.90;;;;;;4887046;29;20413;-76
2021/01/31 08:40:59;;;;;;;11.00;8.90;;;-4.70;99.90;;;;;;4893052;29;20426;-76
2021/01/31 08:43:50;;;;;;;11.13;8.70;;;-4.70;99.90;;;;;;4893752;29;20778;-76
2021/01/31 08:46:34;;;;;;;12.75;8.65;;;-4.70;99.90;;;;;;4883810;29;20425;-76
2021/01/31 08:49:10;;;;;;;11.57;8.98;;;-4.60;99.90;;;;;;4878063;29;20490;-77
2021/01/31 08:51:37;;;;;;;11.55;8.95;;;-4.40;99.90;;;;;;4893672;29;20423;-76
2021/01/31 08:54:10;;;;;;;10.63;7.82;;;-4.30;99.90;;;;;;4860110;29;20485;-76
2021/01/31 08:56:39;;;;;;;10.43;7.50;;;-4.30;99.90;;;;;;4891662;29;20502;-76
2021/01/31 08:59:13;;;;;;;7.35;6.10;;;-4.30;99.90;;;;;;4878485;29;20407;-77
2021/01/31 09:01:42;;;;;;;11.45;8.10;;;-4.30;99.90;;;;;;4886624;29;20417;-75
2021/01/31 09:04:09;;;;;;;13.18;8.95;;;-4.20;99.90;;;;;;4889382;29;20806;-75
2021/01/31 09:06:37;;;;;;;10.43;7.83;;;-4.20;99.90;;;;;;4885826;29;20972;-77
2021/01/31 09:09:02;;;;;;;7.97;6.30;;;-4.20;99.90;;;;;;4889813;29;20406;-75
2021/01/31 09:11:28;;;;;;;7.97;6.37;;;-4.10;99.90;;;;;;4863107;29;23239;-77
2021/01/31 09:13:54;;;;;;;10.27;7.32;;;-4.10;99.90;;;;;;4849005;29;20470;-76
2021/01/31 09:16:24;;;;;;;7.72;6.60;;;-4.10;99.90;;;;;;4845142;29;20404;-75
2021/01/31 09:19:05;;;;;;;10.20;7.45;;;-4.00;99.90;;;;;;4869235;29;20436;-78
2021/01/31 09:21:32;;;;;;;10.40;8.27;;;-3.90;99.90;;;;;;4890368;29;20442;-74
2021/01/31 09:23:59;;;;;;;9.60;7.63;;;-3.80;99.90;;;;;;4881732;29;20821;-76
2021/01/31 09:26:26;;;;;;;10.50;7.47;;;-3.60;99.90;;;;;;4882031;29;20783;-75
2021/01/31 09:28:52;;;;;;;9.07;7.18;;;-3.70;99.90;;;;;;4862157;29;20413;-75
2021/01/31 09:31:17;;;;;;;8.70;6.72;;;-3.50;99.90;;;;;;4859787;29;20438;-74
2021/01/31 09:33:43;;;;;;;8.63;6.60;;;-3.50;99.90;;;;;;4884753;29;20407;-74
2021/01/31 09:36:30;;;;;;;9.07;6.30;;;-3.50;99.90;;;;;;4884638;29;20768;-75
2021/01/31 09:38:58;;;;;;;8.63;7.53;;;-3.40;99.90;;;;;;4874468;29;20828;-78
2021/01/31 09:41:25;;;;;;;11.75;8.85;;;-3.30;99.90;;;;;;4871683;29;20420;-77
2021/01/31 09:43:53;;;;;;;10.65;7.25;;;-3.10;99.90;;;;;;4888999;29;20430;-79
2021/01/31 09:46:21;;;;;;;8.48;7.18;;;-3.00;99.90;;;;;;4854314;29;20416;-79
2021/01/31 09:48:46;;;;;;;9.68;8.65;;;-3.10;99.90;;;;;;4892094;29;20438;-82
2021/01/31 09:51:23;;;;;;;9.73;7.00;;;-2.90;99.90;;;;;;4836615;29;20480;-81
2021/01/31 09:53:49;;;;;;;12.02;10.32;;;-2.70;99.90;;;;;;4854214;29;20424;-79
2021/01/31 09:56:37;;;;;;;9.10;7.00;;;-2.70;99.90;;;;;;4885318;29;20419;-77
2021/01/31 09:59:03;;;;;;;9.68;7.75;;;-2.70;99.90;;;;;;4876399;29;20414;-80
2021/01/31 10:01:29;;;;;;;11.07;8.57;;;-2.70;99.90;;;;;;4878548;29;20411;-77
2021/01/31 10:04:00;;;;;;;11.75;8.35;;;-2.60;99.90;;;;;;4865870;29;20418;-80
2021/01/31 10:06:29;;;;;;;11.98;8.85;;;-2.60;99.90;;;;;;4847858;29;20451;-76
2021/01/31 10:09:01;;;;;;;18.80;14.93;;;-2.70;99.90;;;;;;4877476;29;20415;-77
2021/01/31 10:11:47;;;;;;;11.70;8.60;;;-2.60;99.90;;;;;;4866256;29;20410;-76
2021/01/31 10:14:32;;;;;;;21.23;16.05;;;-2.50;99.90;;;;;;4873861;29;20494;-77
2021/01/31 10:17:18;;;;;;;10.48;7.93;;;-2.40;99.90;;;;;;4890636;29;20410;-78
2021/01/31 10:19:44;;;;;;;9.23;7.07;;;-2.20;99.90;;;;;;4782207;29;21828;-81
2021/01/31 10:23:37;;;;;;;10.90;8.00;;;-2.10;99.90;;;;;;4843573;29;20419;-83
2021/01/31 10:26:21;;;;;;;9.70;7.82;;;-2.10;99.90;;;;;;4815801;29;20842;-78
2021/01/31 10:28:52;;;;;;;8.20;6.88;;;-1.70;99.90;;;;;;4859661;29;20418;-79
2021/01/31 10:31:41;;;;;;;10.23;7.32;;;-1.60;99.90;;;;;;4880044;29;20392;-81
2021/01/31 10:34:10;;;;;;;10.60;7.78;;;-1.40;99.90;;;;;;4860454;29;20945;-78
2021/01/31 10:36:42;;;;;;;12.20;8.50;;;-1.20;99.90;;;;;;4853373;29;20779;-78
2021/01/31 10:39:14;;;;;;;11.82;8.35;;;-1.10;99.90;;;;;;4874887;29;20446;-80
2021/01/31 10:41:40;;;;;;;13.23;8.73;;;-0.90;99.90;;;;;;4891451;29;20410;-77
2021/01/31 10:44:09;;;;;;;13.68;10.85;;;-0.90;99.90;;;;;;4857179;29;20412;-75
2021/01/31 10:46:37;;;;;;;9.48;7.50;;;-0.80;99.90;;;;;;4875266;29;20469;-75
2021/01/31 10:49:02;;;;;;;7.90;6.75;;;-0.70;99.90;;;;;;4871690;29;20418;-85
2021/01/31 10:51:30;;;;;;;8.40;6.93;;;-0.50;99.90;;;;;;4871626;29;20409;-76
2021/01/31 10:53:56;;;;;;;13.10;7.80;;;-0.30;99.90;;;;;;4846295;29;20649;-74
2021/01/31 10:56:21;;;;;;;12.00;8.43;;;0.00;99.90;;;;;;4847164;29;20567;-74
2021/01/31 10:58:47;;;;;;;9.27;7.03;;;0.20;99.90;;;;;;4859920;29;20919;-74
2021/01/31 11:01:13;;;;;;;9.20;7.15;;;0.40;99.90;;;;;;4874874;29;20414;-74
2021/01/31 11:03:39;;;;;;;8.73;6.23;;;0.60;99.90;;;;;;4844216;29;20441;-74
2021/01/31 11:06:04;;;;;;;6.63;5.93;;;0.70;99.90;;;;;;4880006;29;20490;-74
2021/01/31 11:08:30;;;;;;;7.78;6.40;;;0.80;99.90;;;;;;4872349;29;21134;-74
2021/01/31 11:10:56;;;;;;;7.75;5.88;;;0.90;99.90;;;;;;4856661;29;20407;-74
2021/01/31 11:13:22;;;;;;;7.65;6.43;;;1.10;99.90;;;;;;4867388;29;20449;-74
2021/01/31 11:15:51;;;;;;;10.25;8.05;;;1.30;99.90;;;;;;4872055;29;20410;-74
2021/01/31 11:18:20;;;;;;;7.82;6.55;;;1.30;99.90;;;;;;4887800;29;21005;-75
2021/01/31 11:20:49;;;;;;;8.73;6.88;;;1.50;99.90;;;;;;4888132;29;20734;-75
2021/01/31 11:23:15;;;;;;;9.32;6.50;;;1.70;99.90;;;;;;4874598;29;20525;-75
2021/01/31 11:25:41;;;;;;;7.53;6.17;;;2.00;99.90;;;;;;4858067;29;20399;-76
2021/01/31 11:28:07;;;;;;;9.20;6.45;;;2.20;99.90;;;;;;4873524;29;20514;-76
2021/01/31 11:30:36;;;;;;;6.73;6.03;;;2.40;99.90;;;;;;4837904;29;20842;-76
2021/01/31 11:33:01;;;;;;;8.60;6.97;;;2.60;99.90;;;;;;4867108;29;20984;-76
2021/01/31 11:35:28;;;;;;;9.00;6.35;;;2.90;99.90;;;;;;4870457;29;20400;-76
2021/01/31 11:37:54;;;;;;;7.60;6.10;;;3.00;99.90;;;;;;4888770;29;20423;-75
2021/01/31 11:40:20;;;;;;;7.38;6.03;;;3.10;99.90;;;;;;4872659;29;20409;-75
2021/01/31 11:42:49;;;;;;;8.02;6.20;;;3.00;99.90;;;;;;4890541;29;20407;-75
2021/01/31 11:45:16;;;;;;;8.80;6.75;;;3.10;99.90;;;;;;4873784;29;20411;-75
2021/01/31 11:47:42;;;;;;;7.15;5.97;;;3.20;99.90;;;;;;4870200;29;20484;-75
2021/01/31 11:50:09;;;;;;;9.23;7.03;;;3.30;99.90;;;;;;4888443;29;20403;-75
2021/01/31 11:52:34;;;;;;;7.85;6.07;;;3.40;99.90;;;;;;4869828;29;20480;-75
2021/01/31 11:55:00;;;;;;;7.13;5.93;;;3.60;99.90;;;;;;4871318;29;21051;-75
2021/01/31 11:57:29;;;;;;;9.40;6.07;;;3.80;99.90;;;;;;4888344;29;20419;-75
2021/01/31 11:59:55;;;;;;;8.50;5.95;;;4.00;99.90;;;;;;4856094;29;20959;-75
2021/01/31 12:02:20;;;;;;;8.85;6.43;;;4.30;99.90;;;;;;4887467;29;20435;-75
2021/01/31 12:04:46;;;;;;;8.80;5.93;;;4.50;99.90;;;;;;4873422;29;20421;-75
2021/01/31 12:07:12;;;;;;;6.18;5.57;;;4.70;99.90;;;;;;4863539;29;20451;-75
2021/01/31 12:09:39;;;;;;;6.45;5.28;;;4.90;99.90;;;;;;4875434;29;20853;-75
2021/01/31 12:12:05;;;;;;;8.20;5.45;;;5.10;99.90;;;;;;4892402;29;20552;-76
2021/01/31 12:14:30;;;;;;;6.47;5.30;;;5.30;99.90;;;;;;4861822;29;20494;-76
2021/01/31 12:16:56;;;;;;;5.80;4.93;;;5.50;99.90;;;;;;4876895;29;20493;-76
2021/01/31 12:19:23;;;;;;;5.78;5.18;;;5.80;99.90;;;;;;4861288;29;20418;-76
2021/01/31 12:21:50;;;;;;;6.70;5.18;;;5.90;99.90;;;;;;4872071;29;20408;-76
2021/01/31 12:24:16;;;;;;;6.70;5.75;;;6.00;99.90;;;;;;4871425;29;20414;-76
2021/01/31 12:26:42;;;;;;;4.97;4.47;;;6.10;99.90;;;;;;4875726;29;20427;-75
2021/01/31 12:29:07;;;;;;;5.78;4.72;;;6.20;99.90;;;;;;4859540;29;20510;-76
2021/01/31 12:31:33;;;;;;;7.27;4.93;;;6.40;99.90;;;;;;4860156;29;20462;-76
2021/01/31 12:33:59;;;;;;;7.60;5.45;;;6.40;99.90;;;;;;4849149;29;20423;-76
2021/01/31 12:36:25;;;;;;;5.53;5.03;;;6.50;99.90;;;;;;4859194;29;20473;-76
2021/01/31 12:38:51;;;;;;;6.10;5.15;;;6.70;99.90;;;;;;4876247;29;20415;-76
2021/01/31 12:41:16;;;;;;;6.23;5.07;;;6.60;99.90;;;;;;4855074;29;20425;-77
2021/01/31 12:43:45;;;;;;;6.43;4.95;;;6.50;99.90;;;;;;4874226;29;20417;-76
2021/01/31 12:46:10;;;;;;;6.97;5.68;;;6.40;99.90;;;;;;4876572;29;20464;-76
2021/01/31 12:48:36;;;;;;;6.72;5.43;;;6.30;99.90;;;;;;4841551;29;20488;-76
2021/01/31 12:51:04;;;;;;;6.97;5.60;;;6.10;99.90;;;;;;4887075;29;20394;-76
2021/01/31 12:53:31;;;;;;;7.32;5.35;;;5.80;99.90;;;;;;4870501;29;20425;-76
2021/01/31 12:55:56;;;;;;;6.82;5.35;;;5.70;99.90;;;;;;4848864;29;20473;-78
2021/01/31 12:58:22;;;;;;;7.95;5.63;;;5.50;99.90;;;;;;4868330;29;20401;-76
2021/01/31 13:00:48;;;;;;;6.37;5.07;;;5.40;99.90;;;;;;4851600;29;20912;-77
2021/01/31 13:03:14;;;;;;;6.20;5.50;;;5.20;99.90;;;;;;4862369;29;20488;-77
2021/01/31 13:05:40;;;;;;;7.97;5.00;;;5.20;99.90;;;;;;4879737;29;20490;-76
2021/01/31 13:08:09;;;;;;;5.38;4.75;;;5.20;99.90;;;;;;4856479;29;20941;-76